KASL/ASL METAR and TAF weather

Enter ICAO airport designator
Station Type Date Time Source
KASL METAR 2022/12/10 00:55 UTC NOAA

KASL 100055Z AUTO 00000KT 1 3/4SM BR CLR 18/18 A3007 RMK AO2 VIS 3/4V4 T01830179 $


Station Type Date Time Source
KASL Decoded METAR 2022/12/10 00:55 UTC NOAA

Station name not available
Dec 09, 2022 - 07:55 PM EST / 2022.12.10 0055 UTC
Wind: Calm:0
Visibility: 1 3/4 mile(s):0
Sky conditions: clear
Weather: mist
Temperature: 64.9 F (18.3 C)
Dew Point: 64.2 F (17.9 C)
Relative Humidity: 97%
Pressure (altimeter): 30.07 in. Hg (1018 hPa)
ob: KASL 100055Z AUTO 00000KT 1 3/4SM BR CLR 18/18 A3007 RMK AO2 VIS 3/4V4 T01830179
cycle: 1

Station Type Date Time Source
KASL TAF UTC NOAA

Error!

Example: see airport list